BIKJ weather

Kroksfjard-Arnes Airport
Kroksfjard-arnes, Westfjords, Iceland

Public forecast

Using degrees Celsius for public forecast. Weather courtesy of forecast.io.

METAR (pilot weather report)

Closest report is Bildudalur Airport, 41.0 nm (76.0 km) WNW. Retrieved 2019/04/25 11:00 UTC (37 minutes ago):

BIBD 251100Z VRB06KT 9999 FEW040 14/05 Q1001

TAF (pilot weather forecast)

Closest forecast is Reykjavik Airport, 80.3 nm (148.7 km) S. Retrieved 2019/04/25 09:01 UTC (3 hours ago):

TAF BIRK 250759Z 2509/2609 12016KT 9999 SCT020 BKN070 TX14/2515Z TN08/2600Z BECMG 2515/2518 12006KT FEW035 BECMG 2520/2523 11016KT 5000 RADZ BR SCT010 OVC020 BECMG 2604/2606 9999 NSW FEW020 BKN040